createdAt,value
2022-09-10T00:01:37.463Z,24.50
2022-09-10T00:04:11.476Z,27.80
2022-09-10T00:06:40.125Z,26.10
2022-09-10T00:09:08.659Z,26.30
2022-09-10T00:11:38.823Z,24.70
2022-09-10T00:14:10.529Z,26.80
2022-09-10T00:16:38.485Z,25.80
2022-09-10T00:19:06.879Z,25.00
2022-09-10T00:21:35.764Z,25.90
2022-09-10T00:24:05.371Z,29.00
2022-09-10T00:26:38.324Z,26.40
2022-09-10T00:29:09.656Z,27.50
2022-09-10T00:31:38.590Z,27.20
2022-09-10T00:34:07.435Z,28.60
2022-09-10T00:36:40.434Z,30.40
2022-09-10T00:39:11.968Z,28.50
2022-09-10T00:41:41.795Z,30.80
2022-09-10T00:44:40.780Z,28.70
2022-09-10T00:47:18.192Z,29.90
2022-09-10T00:50:08.455Z,27.90
2022-09-10T00:52:39.679Z,31.10
2022-09-10T00:55:09.722Z,26.10
2022-09-10T00:57:38.043Z,28.00
2022-09-10T01:00:10.512Z,25.00
2022-09-10T01:02:38.740Z,25.80
2022-09-10T01:05:09.249Z,22.70
2022-09-10T01:07:37.764Z,23.40
2022-09-10T01:10:24.863Z,26.80
2022-09-10T01:13:04.311Z,25.40
2022-09-10T01:16:03.237Z,25.10
2022-09-10T01:18:49.799Z,24.30
2022-09-10T01:21:25.902Z,25.40
2022-09-10T01:24:19.948Z,26.80
2022-09-10T01:26:50.771Z,26.20
2022-09-10T01:29:28.232Z,28.80
2022-09-10T01:32:06.939Z,25.70
2022-09-10T01:34:49.076Z,25.40
2022-09-10T01:37:23.091Z,26.60
2022-09-10T01:39:53.789Z,23.00
2022-09-10T01:42:27.180Z,21.20
2022-09-10T01:45:01.231Z,22.20
2022-09-10T01:47:53.772Z,23.30
2022-09-10T01:50:57.477Z,21.90
2022-09-10T01:53:44.394Z,20.60
2022-09-10T01:56:35.826Z,22.00
2022-09-10T01:59:38.633Z,20.00
2022-09-10T02:02:15.669Z,21.00
2022-09-10T02:04:46.425Z,19.90
2022-09-10T02:07:16.220Z,17.90
2022-09-10T02:09:44.393Z,19.90
2022-09-10T02:12:19.369Z,20.20
2022-09-10T02:14:54.055Z,20.00
2022-09-10T02:17:25.206Z,19.60
2022-09-10T02:19:56.337Z,17.80
2022-09-10T02:22:24.868Z,20.40
2022-09-10T02:24:52.990Z,27.50
2022-09-10T02:27:20.865Z,18.60
2022-09-10T02:29:49.577Z,20.10
2022-09-10T02:32:17.609Z,19.60
2022-09-10T02:34:45.403Z,17.10
2022-09-10T02:37:13.238Z,20.20
2022-09-10T02:39:41.341Z,19.10
2022-09-10T02:42:09.317Z,16.70
2022-09-10T02:44:37.701Z,17.50
2022-09-10T02:47:06.441Z,19.30
2022-09-10T02:49:34.923Z,19.60
2022-09-10T02:52:03.797Z,18.60
2022-09-10T02:54:31.678Z,18.30
2022-09-10T02:57:00.363Z,18.70
2022-09-10T02:59:28.850Z,18.90
2022-09-10T03:01:56.730Z,18.10
2022-09-10T03:04:24.677Z,14.40
2022-09-10T03:06:55.108Z,16.90
2022-09-10T03:09:23.069Z,19.00
2022-09-10T03:11:51.853Z,18.00
2022-09-10T03:14:22.489Z,18.80
2022-09-10T03:16:50.609Z,16.50
2022-09-10T03:19:18.524Z,20.10
2022-09-10T03:21:47.722Z,17.90
2022-09-10T03:24:16.201Z,21.70
2022-09-10T03:26:44.691Z,20.30
2022-09-10T03:29:12.749Z,23.00
2022-09-10T03:31:40.780Z,20.80
2022-09-10T03:34:12.640Z,21.70
2022-09-10T03:36:40.851Z,19.90
2022-09-10T03:39:09.030Z,20.80
2022-09-10T03:41:37.610Z,19.60
2022-09-10T03:44:06.398Z,21.70
2022-09-10T03:46:34.484Z,19.30
2022-09-10T03:49:03.154Z,20.90
2022-09-10T03:51:31.489Z,20.50
2022-09-10T03:53:59.966Z,20.10
2022-09-10T03:56:28.386Z,23.90
2022-09-10T03:58:57.072Z,22.00
2022-09-10T04:01:25.068Z,20.70
2022-09-10T04:03:57.001Z,22.90
2022-09-10T04:06:24.866Z,22.40
2022-09-10T04:08:52.934Z,21.90
2022-09-10T04:11:21.157Z,22.40
2022-09-10T04:13:49.283Z,23.90
2022-09-10T04:16:18.320Z,19.80
2022-09-10T04:18:46.446Z,21.60
2022-09-10T04:21:14.211Z,21.10
2022-09-10T04:23:42.182Z,22.50
2022-09-10T04:26:18.918Z,21.80
2022-09-10T04:28:47.066Z,20.30
2022-09-10T04:31:14.900Z,20.00
2022-09-10T04:33:42.959Z,18.10
2022-09-10T04:36:10.822Z,20.30
2022-09-10T04:38:41.967Z,19.40
2022-09-10T04:41:10.190Z,19.80
2022-09-10T04:43:38.688Z,17.70
2022-09-10T04:46:07.020Z,22.20
2022-09-10T04:48:35.352Z,18.40
2022-09-10T04:51:16.247Z,18.90
2022-09-10T04:53:46.071Z,22.30
2022-09-10T04:56:14.746Z,18.10
2022-09-10T04:58:44.508Z,23.80
2022-09-10T05:01:13.338Z,19.50
2022-09-10T05:03:41.275Z,20.80
2022-09-10T05:06:09.689Z,16.80
2022-09-10T05:08:37.868Z,20.50
2022-09-10T05:11:05.736Z,17.90
2022-09-10T05:13:33.693Z,20.70
2022-09-10T05:16:01.864Z,18.50
2022-09-10T05:18:29.729Z,18.80
2022-09-10T05:20:58.009Z,18.90
2022-09-10T05:23:26.421Z,17.30
2022-09-10T05:25:54.170Z,21.30
2022-09-10T05:28:22.116Z,17.20
2022-09-10T05:30:51.980Z,17.50
2022-09-10T05:33:19.915Z,16.40
2022-09-10T05:35:53.698Z,15.40
2022-09-10T05:38:21.893Z,14.60
2022-09-10T05:40:49.942Z,14.60
2022-09-10T05:43:18.218Z,16.40
2022-09-10T05:45:47.352Z,15.30
2022-09-10T05:48:15.131Z,13.70
2022-09-10T05:50:45.656Z,12.80
2022-09-10T05:53:14.069Z,13.00
2022-09-10T05:55:42.047Z,16.00
2022-09-10T05:58:10.756Z,14.90
2022-09-10T06:00:38.597Z,14.70
2022-09-10T06:03:06.592Z,12.70
2022-09-10T06:05:34.535Z,16.20
2022-09-10T06:08:07.877Z,14.30
2022-09-10T06:10:36.511Z,15.00
2022-09-10T06:13:04.379Z,15.40
2022-09-10T06:15:33.265Z,15.40
2022-09-10T06:18:02.067Z,13.50
2022-09-10T06:20:29.866Z,15.10
2022-09-10T06:22:57.888Z,16.20
2022-09-10T06:25:25.651Z,14.30
2022-09-10T06:27:53.431Z,13.00
2022-09-10T06:30:21.851Z,13.20
2022-09-10T06:32:49.639Z,13.40
2022-09-10T06:35:17.420Z,12.60
2022-09-10T06:37:45.392Z,12.40
2022-09-10T06:40:13.537Z,12.20
2022-09-10T06:42:41.433Z,13.20
2022-09-10T06:45:09.972Z,14.40
2022-09-10T06:50:27.248Z,13.40
2022-09-10T06:52:55.008Z,14.20
2022-09-10T06:55:22.772Z,17.00
2022-09-10T06:57:50.491Z,13.50
2022-09-10T07:00:18.303Z,13.70
2022-09-10T07:02:46.059Z,15.80
2022-09-10T07:05:13.902Z,14.30
2022-09-10T07:07:41.924Z,14.70
2022-09-10T07:10:10.024Z,16.00
2022-09-10T07:12:37.935Z,14.70
2022-09-10T07:15:06.581Z,17.10
2022-09-10T07:17:37.513Z,18.60
2022-09-10T07:20:06.132Z,18.50
2022-09-10T07:22:33.901Z,16.90
2022-09-10T07:25:01.763Z,14.20
2022-09-10T07:27:29.607Z,16.30
2022-09-10T07:29:57.501Z,16.90
2022-09-10T07:32:25.669Z,14.70
2022-09-10T07:34:56.045Z,16.40
2022-09-10T07:37:23.857Z,13.20
2022-09-10T07:39:51.810Z,14.50
2022-09-10T07:42:19.693Z,13.10
2022-09-10T07:44:47.572Z,15.40
2022-09-10T07:47:15.321Z,12.80
2022-09-10T07:49:44.929Z,16.80
2022-09-10T07:52:12.793Z,15.90
2022-09-10T07:54:40.816Z,13.60
2022-09-10T07:57:08.529Z,12.40
2022-09-10T07:59:36.388Z,13.50
2022-09-10T08:02:06.624Z,14.60
2022-09-10T08:04:37.628Z,12.70
2022-09-10T08:07:05.515Z,14.20
2022-09-10T08:09:33.689Z,15.40
2022-09-10T08:12:01.557Z,11.80
2022-09-10T08:14:29.317Z,12.40
2022-09-10T08:16:57.183Z,13.30
2022-09-10T08:19:25.151Z,11.70
2022-09-10T08:21:52.941Z,11.30
2022-09-10T08:24:20.678Z,11.20
2022-09-10T08:26:49.386Z,13.30
2022-09-10T08:29:17.465Z,11.70
2022-09-10T08:31:45.509Z,12.60
2022-09-10T08:34:14.210Z,16.80
2022-09-10T08:36:42.476Z,14.50
2022-09-10T08:39:11.764Z,13.70
2022-09-10T08:41:39.646Z,12.60
2022-09-10T08:44:16.313Z,12.60
2022-09-10T08:47:10.490Z,13.70
2022-09-10T08:49:46.852Z,12.10
2022-09-10T08:52:17.695Z,13.50
2022-09-10T08:55:04.390Z,12.00
2022-09-10T08:57:38.404Z,13.70
2022-09-10T09:00:25.121Z,13.00
2022-09-10T09:02:54.459Z,13.40
2022-09-10T09:05:25.875Z,15.40
2022-09-10T09:07:54.950Z,12.00
2022-09-10T09:10:25.681Z,13.50
2022-09-10T09:13:27.703Z,12.90
2022-09-10T09:16:14.455Z,11.80
2022-09-10T09:19:17.575Z,10.90
2022-09-10T09:21:53.656Z,9.00
2022-09-10T09:24:28.334Z,8.90
2022-09-10T09:27:01.999Z,8.00
2022-09-10T09:29:38.281Z,8.10
2022-09-10T09:32:07.086Z,9.20
2022-09-10T09:34:40.069Z,10.40
2022-09-10T09:37:36.813Z,9.60
2022-09-10T09:40:15.945Z,10.70
2022-09-10T09:42:56.250Z,9.60
2022-09-10T09:45:42.434Z,8.70
2022-09-10T09:48:13.655Z,7.40
2022-09-10T09:50:45.930Z,9.50
2022-09-10T09:53:25.359Z,8.50
2022-09-10T09:55:57.307Z,8.00
2022-09-10T09:58:26.646Z,7.90
2022-09-10T10:01:07.081Z,8.30
2022-09-10T10:03:50.495Z,8.80
2022-09-10T10:06:22.458Z,9.50
2022-09-10T10:08:58.139Z,9.40
2022-09-10T10:11:48.393Z,8.60
2022-09-10T10:14:20.253Z,8.40
2022-09-10T10:16:49.998Z,8.80
2022-09-10T10:19:36.877Z,8.90
2022-09-10T10:22:20.001Z,9.10
2022-09-10T10:24:51.561Z,9.20
2022-09-10T10:27:37.645Z,8.70
2022-09-10T10:30:07.948Z,10.30
2022-09-10T10:32:47.514Z,9.60
2022-09-10T10:35:33.497Z,9.00
2022-09-10T10:41:22.686Z,10.20
2022-09-10T10:44:09.189Z,10.60
2022-09-10T10:46:44.466Z,11.30
2022-09-10T10:51:52.545Z,10.50
2022-09-10T10:54:23.795Z,10.20
2022-09-10T10:57:22.380Z,12.10
2022-09-10T11:00:13.177Z,11.40
2022-09-10T11:02:54.508Z,10.90
2022-09-10T11:05:33.764Z,10.20
2022-09-10T11:08:12.408Z,9.20
2022-09-10T11:10:45.292Z,9.10
2022-09-10T11:13:18.384Z,10.50
2022-09-10T11:15:59.618Z,12.70
2022-09-10T11:18:28.455Z,11.50
2022-09-10T11:21:08.617Z,11.60
2022-09-10T11:23:49.595Z,11.00
2022-09-10T11:26:39.051Z,14.60
2022-09-10T11:29:41.641Z,11.20
2022-09-10T11:32:38.471Z,10.10
2022-09-10T11:35:40.027Z,11.10
2022-09-10T11:38:26.529Z,11.00
2022-09-10T11:41:15.601Z,10.70
2022-09-10T11:43:55.334Z,11.40
2022-09-10T11:46:30.211Z,11.70
2022-09-10T11:49:12.571Z,11.90
2022-09-10T11:51:42.075Z,13.60
2022-09-10T11:54:27.556Z,11.50
2022-09-10T11:57:01.540Z,11.10
2022-09-10T11:59:47.731Z,13.70
2022-09-10T12:02:18.211Z,12.10
2022-09-10T12:05:04.807Z,13.80
2022-09-10T12:07:35.423Z,11.90
2022-09-10T12:10:18.760Z,14.40
2022-09-10T12:12:51.414Z,13.60
2022-09-10T12:15:23.799Z,12.20
2022-09-10T12:18:16.856Z,13.20
2022-09-10T12:20:55.074Z,12.70
2022-09-10T12:23:30.109Z,22.70
2022-09-10T12:26:13.579Z,16.30
2022-09-10T12:28:53.147Z,13.70
2022-09-10T12:31:22.125Z,14.80
2022-09-10T12:33:51.219Z,12.30
2022-09-10T12:36:28.246Z,12.30
2022-09-10T12:39:21.602Z,11.10
2022-09-10T12:41:49.949Z,13.50
2022-09-10T12:44:36.376Z,13.30
2022-09-10T12:47:14.091Z,12.00
2022-09-10T12:49:53.203Z,12.10
2022-09-10T12:52:35.304Z,12.60
2022-09-10T12:55:27.263Z,12.70
2022-09-10T12:58:23.761Z,14.90
2022-09-10T13:00:54.253Z,12.00
2022-09-10T13:03:28.078Z,12.40
2022-09-10T13:05:59.272Z,14.50
2022-09-10T13:08:43.503Z,17.80
2022-09-10T13:11:20.987Z,12.90
2022-09-10T13:13:48.654Z,14.50
2022-09-10T13:16:20.659Z,15.00
2022-09-10T13:18:48.914Z,14.90
2022-09-10T13:21:25.526Z,14.20
2022-09-10T13:23:57.844Z,15.60
2022-09-10T13:26:28.621Z,20.40
2022-09-10T13:28:57.114Z,15.80
2022-09-10T13:31:31.707Z,15.00
2022-09-10T13:34:14.645Z,14.90
2022-09-10T13:37:31.730Z,16.60
2022-09-10T13:40:33.747Z,16.70
2022-09-10T13:43:07.435Z,15.10
2022-09-10T13:45:38.031Z,16.80
2022-09-10T13:48:24.011Z,15.50
2022-09-10T13:51:00.648Z,17.40
2022-09-10T13:53:30.785Z,17.60
2022-09-10T13:56:14.333Z,16.80
2022-09-10T13:58:49.627Z,17.90
2022-09-10T14:01:17.693Z,17.90
2022-09-10T14:03:45.661Z,16.40
2022-09-10T14:06:22.844Z,17.90
2022-09-10T14:08:57.916Z,19.70
2022-09-10T14:11:31.623Z,20.60
2022-09-10T14:14:19.507Z,18.00
2022-09-10T14:16:59.304Z,23.30
2022-09-10T14:19:49.433Z,23.40
2022-09-10T14:22:22.433Z,21.80
2022-09-10T14:24:54.139Z,22.30
2022-09-10T14:27:26.410Z,20.30
2022-09-10T14:30:24.060Z,23.40
2022-09-10T14:32:52.690Z,21.60
2022-09-10T14:35:40.579Z,21.70
2022-09-10T14:38:30.451Z,20.50
2022-09-10T14:41:16.784Z,25.60
2022-09-10T14:43:45.438Z,23.00
2022-09-10T14:46:52.634Z,20.20
2022-09-10T14:49:33.254Z,20.30
2022-09-10T14:52:02.566Z,19.70
2022-09-10T14:54:33.258Z,20.50
2022-09-10T14:57:10.206Z,17.80
2022-09-10T14:59:42.406Z,18.80
2022-09-10T15:02:23.347Z,16.90
2022-09-10T15:04:52.283Z,16.80
2022-09-10T15:07:21.018Z,16.90
2022-09-10T15:09:48.867Z,15.20
2022-09-10T15:12:25.231Z,15.20
2022-09-10T15:14:53.196Z,14.00
2022-09-10T15:17:21.268Z,14.10
2022-09-10T15:19:50.086Z,15.40
2022-09-10T15:22:24.958Z,16.00
2022-09-10T15:25:10.816Z,13.60
2022-09-10T15:27:39.523Z,13.40
2022-09-10T15:30:08.117Z,17.10
2022-09-10T15:32:35.906Z,16.80
2022-09-10T15:35:04.426Z,13.70
2022-09-10T15:37:32.763Z,12.80
2022-09-10T15:40:00.661Z,26.10
2022-09-10T15:42:28.514Z,31.70
2022-09-10T15:44:56.264Z,19.80
2022-09-10T15:47:24.373Z,15.80
2022-09-10T15:49:53.026Z,15.90
2022-09-10T15:52:21.392Z,16.30
2022-09-10T15:54:49.155Z,16.10
2022-09-10T15:57:17.021Z,17.10
2022-09-10T15:59:44.890Z,17.70
2022-09-10T16:02:16.024Z,15.80
2022-09-10T16:04:43.908Z,14.10
2022-09-10T16:07:11.964Z,14.20
2022-09-10T16:09:40.339Z,13.90
2022-09-10T16:12:08.319Z,14.50
2022-09-10T16:14:36.210Z,15.70
2022-09-10T16:17:10.477Z,16.10
2022-09-10T16:19:38.967Z,13.60
2022-09-10T16:22:06.908Z,13.30
2022-09-10T16:24:35.108Z,12.50
2022-09-10T16:27:02.976Z,14.60
2022-09-10T16:29:32.600Z,13.40
2022-09-10T16:32:00.424Z,14.20
2022-09-10T16:34:28.312Z,13.90
2022-09-10T16:36:56.220Z,12.90
2022-09-10T16:39:23.968Z,14.00
2022-09-10T16:41:52.012Z,16.60
2022-09-10T16:44:20.396Z,15.20
2022-09-10T16:46:49.184Z,17.10
2022-09-10T16:49:19.723Z,13.50
2022-09-10T16:51:49.526Z,12.90
2022-09-10T16:54:20.128Z,13.40
2022-09-10T16:56:49.219Z,14.60
2022-09-10T16:59:20.589Z,15.80
2022-09-10T17:01:49.728Z,13.70
2022-09-10T17:04:28.259Z,13.50
2022-09-10T17:06:57.979Z,11.90
2022-09-10T17:09:26.208Z,14.60
2022-09-10T17:11:54.046Z,14.80
2022-09-10T17:14:22.015Z,14.10
2022-09-10T17:16:50.088Z,16.10
2022-09-10T17:19:23.854Z,15.60
2022-09-10T17:21:55.616Z,15.20
2022-09-10T17:24:26.111Z,18.00
2022-09-10T17:26:55.404Z,17.60
2022-09-10T17:29:25.691Z,19.10
2022-09-10T17:31:55.569Z,17.10
2022-09-10T17:34:24.815Z,19.30
2022-09-10T17:36:52.948Z,19.30
2022-09-10T17:39:21.151Z,18.20
2022-09-10T17:41:49.031Z,18.50
2022-09-10T17:44:16.889Z,17.80
2022-09-10T17:46:46.303Z,18.60
2022-09-10T17:49:15.072Z,18.70
2022-09-10T17:51:43.548Z,22.70
2022-09-10T17:54:11.990Z,19.70
2022-09-10T17:56:41.830Z,17.20
2022-09-10T17:59:14.337Z,16.10
2022-09-10T18:01:43.064Z,16.10
2022-09-10T18:04:15.977Z,17.80
2022-09-10T18:06:47.861Z,18.40
2022-09-10T18:09:18.069Z,19.20
2022-09-10T18:11:46.079Z,18.50
2022-09-10T18:14:21.778Z,19.90
2022-09-10T18:16:51.206Z,18.20
2022-09-10T18:19:19.507Z,18.20
2022-09-10T18:21:48.881Z,19.10
2022-09-10T18:24:24.339Z,17.90
2022-09-10T18:26:54.224Z,22.50
2022-09-10T18:29:25.077Z,23.40
2022-09-10T18:31:55.952Z,21.40
2022-09-10T18:34:27.851Z,21.70
2022-09-10T18:36:58.596Z,25.00
2022-09-10T18:39:28.788Z,23.50
2022-09-10T18:41:57.438Z,24.70
2022-09-10T18:44:27.708Z,21.10
2022-09-10T18:46:56.155Z,21.50
2022-09-10T18:49:25.770Z,22.70
2022-09-10T18:51:56.140Z,24.10
2022-09-10T18:54:28.797Z,22.50
2022-09-10T18:56:57.520Z,23.40
2022-09-10T18:59:26.330Z,24.00
2022-09-10T19:01:56.234Z,23.50
2022-09-10T19:04:27.528Z,23.40
2022-09-10T19:06:56.879Z,24.10
2022-09-10T19:09:29.999Z,24.90
2022-09-10T19:12:00.647Z,23.30
2022-09-10T19:14:33.116Z,25.10
2022-09-10T19:17:02.312Z,24.50
2022-09-10T19:19:33.189Z,28.00
2022-09-10T19:22:03.745Z,26.30
2022-09-10T19:24:53.342Z,25.20
2022-09-10T19:27:20.732Z,24.00
2022-09-10T19:29:49.877Z,24.10
2022-09-10T19:32:19.940Z,26.70
2022-09-10T19:34:52.246Z,26.30
2022-09-10T19:37:20.775Z,25.70
2022-09-10T19:39:48.910Z,22.60
2022-09-10T19:42:17.313Z,29.80
2022-09-10T19:44:45.332Z,25.90
2022-09-10T19:47:13.203Z,23.20
2022-09-10T19:49:41.191Z,26.40
2022-09-10T19:52:11.082Z,27.40
2022-09-10T19:54:38.897Z,23.80
2022-09-10T19:57:06.639Z,21.10
2022-09-10T19:59:34.416Z,24.90
2022-09-10T20:02:02.267Z,25.30
2022-09-10T20:04:30.262Z,24.10
2022-09-10T20:06:58.128Z,23.00
2022-09-10T20:09:25.992Z,28.00
2022-09-10T20:11:53.963Z,24.80
2022-09-10T20:14:21.761Z,27.00
2022-09-10T20:16:49.860Z,29.60
2022-09-10T20:19:18.577Z,29.60
2022-09-10T20:21:47.968Z,30.30
2022-09-10T20:24:16.468Z,27.80
2022-09-10T20:26:46.716Z,29.60
2022-09-10T20:29:18.197Z,26.30
2022-09-10T20:31:47.240Z,26.50
2022-09-10T20:34:19.651Z,25.20
2022-09-10T20:36:51.577Z,30.10
2022-09-10T20:39:22.471Z,35.80
2022-09-10T20:41:50.365Z,29.80
2022-09-10T20:44:18.336Z,37.70
2022-09-10T20:46:46.195Z,40.50
2022-09-10T20:49:16.318Z,38.60
2022-09-10T20:51:44.795Z,35.70
2022-09-10T20:54:15.131Z,34.40
2022-09-10T20:56:43.398Z,36.90
2022-09-10T20:59:16.192Z,36.60
2022-09-10T21:01:46.442Z,35.00
2022-09-10T21:04:15.288Z,35.20
2022-09-10T21:06:43.459Z,41.20
2022-09-10T21:09:12.723Z,38.90
2022-09-10T21:11:40.862Z,38.90
2022-09-10T21:14:09.839Z,37.30
2022-09-10T21:16:41.486Z,39.10
2022-09-10T21:19:12.515Z,34.00
2022-09-10T21:21:41.441Z,35.20
2022-09-10T21:24:13.367Z,33.20
2022-09-10T21:26:43.510Z,31.70
2022-09-10T21:29:17.595Z,30.40
2022-09-10T21:31:46.910Z,28.40
2022-09-10T21:34:15.319Z,27.80
2022-09-10T21:36:43.990Z,23.90
2022-09-10T21:39:14.499Z,23.60
2022-09-10T21:41:45.524Z,25.10
2022-09-10T21:44:17.513Z,24.80
2022-09-10T21:46:46.584Z,25.50
2022-09-10T21:49:15.304Z,25.80
2022-09-10T21:51:43.337Z,26.30
2022-09-10T21:54:18.886Z,23.60
2022-09-10T21:59:19.642Z,37.80
2022-09-10T22:01:48.830Z,22.00
2022-09-10T22:04:22.068Z,24.00
2022-09-10T22:06:50.853Z,23.70
2022-09-10T22:09:20.017Z,32.70
2022-09-10T22:11:54.402Z,35.10
2022-09-10T22:14:24.845Z,23.60
2022-09-10T22:16:53.036Z,19.00
2022-09-10T22:19:25.419Z,21.30
2022-09-10T22:21:57.509Z,17.90
2022-09-10T22:24:26.358Z,14.80
2022-09-10T22:26:54.756Z,17.40
2022-09-10T22:29:22.791Z,16.20
2022-09-10T22:31:50.911Z,16.40
2022-09-10T22:34:19.138Z,16.50
2022-09-10T22:36:48.847Z,20.30
2022-09-10T22:39:19.577Z,18.30
2022-09-10T22:41:50.107Z,20.70
2022-09-10T22:44:19.391Z,18.60
2022-09-10T22:46:47.213Z,19.10
2022-09-10T22:49:16.515Z,16.60
2022-09-10T22:51:44.948Z,21.30
2022-09-10T22:54:12.711Z,17.70
2022-09-10T22:56:42.154Z,18.50
2022-09-10T22:59:14.136Z,20.60
2022-09-10T23:01:43.802Z,20.00
2022-09-10T23:04:11.760Z,20.30
2022-09-10T23:06:39.683Z,23.10
2022-09-10T23:09:11.704Z,22.30
2022-09-10T23:11:40.578Z,24.50
2022-09-10T23:14:13.156Z,22.90
2022-09-10T23:16:44.196Z,23.40
2022-09-10T23:19:15.710Z,24.20
2022-09-10T23:21:47.194Z,23.20
2022-09-10T23:24:17.373Z,21.90
2022-09-10T23:26:46.199Z,26.00
2022-09-10T23:29:17.441Z,24.70
2022-09-10T23:31:46.338Z,22.30
2022-09-10T23:34:16.758Z,19.70
2022-09-10T23:36:46.654Z,21.00
2022-09-10T23:39:17.721Z,20.20
2022-09-10T23:41:45.675Z,19.10
2022-09-10T23:44:13.544Z,19.90
2022-09-10T23:46:41.568Z,18.60
2022-09-10T23:49:09.485Z,20.20
2022-09-10T23:51:37.448Z,19.10
2022-09-10T23:54:05.621Z,20.10
2022-09-10T23:56:33.796Z,20.10
2022-09-10T23:59:01.673Z,21.60
